createdAt,value
2018-01-31T01:53:00.872Z,14.73
2018-01-31T01:55:28.399Z,10.33
2018-01-31T01:57:55.917Z,15.73
2018-01-31T02:00:23.438Z,16.83
2018-01-31T03:06:26.377Z,15.70
2018-01-31T03:08:53.929Z,17.83
2018-01-31T03:11:21.503Z,14.80
2018-01-31T03:13:49.086Z,17.93
2018-01-31T03:16:16.614Z,16.17
2018-01-31T03:18:44.147Z,19.07
2018-01-31T03:21:11.664Z,14.53
2018-01-31T03:23:39.218Z,16.93
2018-01-31T03:26:06.750Z,17.47
2018-01-31T03:28:34.309Z,20.80
2018-01-31T03:31:01.830Z,14.87
2018-01-31T03:33:29.466Z,17.87
2018-01-31T03:35:56.989Z,21.10
2018-01-31T03:38:24.579Z,17.73
2018-01-31T03:40:52.105Z,14.70
2018-01-31T03:43:19.624Z,17.77
2018-01-31T03:45:47.135Z,17.47
2018-01-31T03:48:14.727Z,17.73
2018-01-31T03:50:42.246Z,20.27
2018-01-31T03:53:09.764Z,18.23
2018-01-31T03:55:37.407Z,17.70
2018-01-31T03:58:04.964Z,19.00
2018-01-31T04:00:32.486Z,17.40
2018-01-31T04:03:00.050Z,17.53
2018-01-31T04:05:27.642Z,16.33
2018-01-31T04:07:55.206Z,16.13
2018-01-31T04:10:22.724Z,15.87
2018-01-31T04:12:50.324Z,22.50
2018-01-31T04:15:17.850Z,22.60
2018-01-31T04:17:45.376Z,16.60
2018-01-31T04:20:12.884Z,19.87
2018-01-31T04:22:40.432Z,15.50
2018-01-31T04:25:08.020Z,17.00
2018-01-31T04:27:35.539Z,17.63
2018-01-31T04:30:03.069Z,16.83
2018-01-31T04:32:30.600Z,14.47
2018-01-31T04:34:58.116Z,14.93
2018-01-31T04:37:25.717Z,17.03
2018-01-31T04:39:53.244Z,14.00
2018-01-31T04:42:20.853Z,15.53
2018-01-31T04:44:48.382Z,17.50
2018-01-31T04:47:15.960Z,14.87
2018-01-31T04:49:43.483Z,13.93
2018-01-31T04:52:11.005Z,15.07
2018-01-31T04:54:38.530Z,14.00
2018-01-31T04:57:06.090Z,16.33
2018-01-31T04:59:33.616Z,16.43
2018-01-31T05:02:01.216Z,13.97
2018-01-31T05:04:28.778Z,17.13
2018-01-31T05:06:56.273Z,12.93
2018-01-31T05:09:23.894Z,12.63
2018-01-31T05:11:51.411Z,16.50
2018-01-31T05:14:19.013Z,14.50
2018-01-31T05:16:46.580Z,18.03
2018-01-31T05:19:14.132Z,16.93
2018-01-31T05:21:41.647Z,17.07
2018-01-31T05:24:09.177Z,14.67
2018-01-31T05:26:36.711Z,15.93
2018-01-31T05:29:04.232Z,15.47
2018-01-31T05:31:31.792Z,20.20
2018-01-31T05:33:59.318Z,19.03
2018-01-31T05:36:26.840Z,16.47
2018-01-31T05:38:54.371Z,19.10
2018-01-31T05:41:21.901Z,15.40
2018-01-31T05:43:49.494Z,16.23
2018-01-31T05:46:17.056Z,17.73
2018-01-31T05:48:44.647Z,17.67
2018-01-31T05:51:12.212Z,18.83
2018-01-31T05:53:39.746Z,14.70
2018-01-31T05:56:07.332Z,19.83
2018-01-31T05:58:34.898Z,17.37
2018-01-31T06:01:02.437Z,14.73
2018-01-31T06:03:29.983Z,18.57
2018-01-31T06:05:57.543Z,12.83
2018-01-31T06:08:25.127Z,17.97
2018-01-31T06:10:52.639Z,16.40
2018-01-31T06:13:20.153Z,14.67
2018-01-31T06:15:47.665Z,18.57
2018-01-31T06:18:15.259Z,15.27
2018-01-31T06:20:42.798Z,19.10
2018-01-31T06:23:10.318Z,12.77
2018-01-31T06:25:37.848Z,17.80
2018-01-31T06:28:05.374Z,18.23
2018-01-31T06:30:32.952Z,15.47
2018-01-31T06:33:00.468Z,15.80
2018-01-31T06:35:28.089Z,18.83
2018-01-31T06:37:55.608Z,15.13
2018-01-31T06:40:23.126Z,16.23
2018-01-31T06:42:50.637Z,18.10
2018-01-31T06:45:18.226Z,14.80
2018-01-31T06:47:45.794Z,15.57
2018-01-31T06:50:13.313Z,14.77
2018-01-31T06:52:40.873Z,14.80
2018-01-31T06:55:08.393Z,14.60
2018-01-31T06:57:36.851Z,13.83
2018-01-31T07:00:04.472Z,14.73
2018-01-31T07:02:32.023Z,14.93
2018-01-31T07:04:59.559Z,15.80
2018-01-31T07:07:27.097Z,17.73
2018-01-31T07:09:54.612Z,23.73
2018-01-31T07:12:22.215Z,16.50
2018-01-31T07:14:49.742Z,17.97
2018-01-31T07:17:17.301Z,15.67
2018-01-31T07:19:44.816Z,16.33
2018-01-31T07:22:12.347Z,19.50
2018-01-31T07:24:39.877Z,17.53
2018-01-31T07:27:07.401Z,18.13
2018-01-31T07:29:34.942Z,15.47
2018-01-31T07:32:02.458Z,17.97
2018-01-31T07:34:29.974Z,18.70
2018-01-31T07:36:57.489Z,16.13
2018-01-31T07:39:25.006Z,18.60
2018-01-31T07:41:52.529Z,21.83
2018-01-31T07:44:20.183Z,18.07
2018-01-31T07:46:47.792Z,15.20
2018-01-31T07:49:15.287Z,15.50
2018-01-31T07:51:42.848Z,16.80
2018-01-31T07:54:10.361Z,16.93
2018-01-31T07:56:37.981Z,14.27
2018-01-31T07:59:05.511Z,18.00
2018-01-31T08:01:33.064Z,17.27
2018-01-31T08:04:00.591Z,15.93
2018-01-31T08:06:28.150Z,15.30
2018-01-31T08:08:55.664Z,18.40
2018-01-31T08:11:23.237Z,19.27
2018-01-31T08:13:50.769Z,17.57
2018-01-31T08:16:18.297Z,16.40
2018-01-31T08:18:45.821Z,16.70
2018-01-31T08:21:13.384Z,18.33
2018-01-31T08:23:40.939Z,19.20
2018-01-31T08:26:08.466Z,17.20
2018-01-31T08:28:35.985Z,18.40
2018-01-31T08:31:03.517Z,17.60
2018-01-31T08:33:31.077Z,20.90
2018-01-31T08:35:58.602Z,17.27
2018-01-31T08:38:26.199Z,19.53
2018-01-31T08:40:53.713Z,18.87
2018-01-31T08:43:21.282Z,19.37
2018-01-31T08:45:48.810Z,18.17
2018-01-31T08:48:16.360Z,16.70
2018-01-31T08:50:43.891Z,17.53
2018-01-31T08:53:11.417Z,18.07
2018-01-31T08:55:38.940Z,19.90
2018-01-31T08:58:06.802Z,18.83
2018-01-31T09:00:34.435Z,19.63
2018-01-31T09:03:02.000Z,20.23
2018-01-31T09:05:29.521Z,17.80
2018-01-31T09:07:57.051Z,22.53
2018-01-31T09:10:24.666Z,20.03
2018-01-31T09:12:52.197Z,20.23
2018-01-31T09:15:19.724Z,16.90
2018-01-31T09:17:47.252Z,20.67
2018-01-31T09:20:14.774Z,23.33
2018-01-31T09:22:42.296Z,20.90
2018-01-31T09:25:09.817Z,18.67
2018-01-31T09:27:37.333Z,21.13
2018-01-31T09:30:04.858Z,21.33
2018-01-31T09:32:32.410Z,21.37
2018-01-31T09:34:59.927Z,20.07
2018-01-31T09:37:27.516Z,19.50
2018-01-31T09:39:55.050Z,21.73
2018-01-31T09:42:22.580Z,20.23
2018-01-31T09:44:50.103Z,20.47
2018-01-31T09:47:17.621Z,17.73
2018-01-31T09:49:45.217Z,20.97
2018-01-31T09:52:12.744Z,21.83
2018-01-31T09:54:40.304Z,20.43
2018-01-31T09:57:07.909Z,21.80
2018-01-31T09:59:35.425Z,25.90
2018-01-31T10:02:02.966Z,23.63
2018-01-31T10:04:30.485Z,18.70
2018-01-31T10:06:58.045Z,19.77
2018-01-31T10:09:25.570Z,19.70
2018-01-31T10:11:53.094Z,21.03
2018-01-31T10:14:20.623Z,20.03
2018-01-31T10:16:48.144Z,17.07
2018-01-31T10:19:15.669Z,20.33
2018-01-31T10:21:43.201Z,22.37
2018-01-31T10:24:10.762Z,20.17
2018-01-31T10:26:38.273Z,18.97
2018-01-31T10:29:05.810Z,19.13
2018-01-31T10:31:33.338Z,22.60
2018-01-31T10:34:00.859Z,21.67
2018-01-31T10:36:28.459Z,21.73
2018-01-31T10:38:56.019Z,21.27
2018-01-31T10:41:23.549Z,17.53
2018-01-31T10:43:51.140Z,20.10
2018-01-31T10:46:18.660Z,15.77
2018-01-31T10:48:46.188Z,15.90
2018-01-31T10:51:13.716Z,16.83
2018-01-31T10:58:36.440Z,17.93
2018-01-31T11:01:03.964Z,15.80
2018-01-31T11:03:31.496Z,14.40
2018-01-31T11:05:59.012Z,12.70
2018-01-31T11:08:26.530Z,14.83
2018-01-31T11:10:54.044Z,13.57
2018-01-31T11:13:21.581Z,14.00
2018-01-31T11:15:49.110Z,15.07
2018-01-31T11:18:16.625Z,13.47
2018-01-31T11:20:44.144Z,12.90
2018-01-31T11:23:11.655Z,14.20
2018-01-31T11:25:39.197Z,12.93
2018-01-31T11:28:06.718Z,11.87
2018-01-31T11:30:34.237Z,11.20
2018-01-31T11:33:01.781Z,15.00
2018-01-31T11:35:29.298Z,12.97
2018-01-31T11:37:56.814Z,11.23
2018-01-31T11:40:24.334Z,10.03
2018-01-31T11:42:51.939Z,9.93
2018-01-31T11:45:19.455Z,8.50
2018-01-31T11:47:46.980Z,9.43
2018-01-31T11:50:14.499Z,8.63
2018-01-31T11:52:42.017Z,8.23
2018-01-31T11:55:09.663Z,9.07
2018-01-31T11:57:37.174Z,9.43
2018-01-31T12:00:04.705Z,8.37
2018-01-31T12:02:32.254Z,10.17
2018-01-31T12:04:59.768Z,8.03
2018-01-31T12:07:27.348Z,7.27
2018-01-31T12:09:54.859Z,8.43
2018-01-31T12:12:34.252Z,6.20
2018-01-31T12:15:13.697Z,8.50
2018-01-31T12:17:41.219Z,6.90
2018-01-31T12:20:20.484Z,10.10
2018-01-31T12:22:59.675Z,5.83
2018-01-31T12:25:39.042Z,6.27
2018-01-31T12:28:18.450Z,9.03
2018-01-31T12:30:57.935Z,6.47
2018-01-31T12:33:37.382Z,6.27
2018-01-31T12:36:16.776Z,7.30
2018-01-31T12:38:56.189Z,4.77
2018-01-31T12:41:23.168Z,7.33
2018-01-31T12:43:50.143Z,5.07
2018-01-31T12:46:29.448Z,4.80
2018-01-31T12:49:02.596Z,3.80
2018-01-31T12:51:42.044Z,4.13
2018-01-31T12:54:21.569Z,3.80
2018-01-31T12:57:00.981Z,3.57
2018-01-31T12:59:40.557Z,3.40
2018-01-31T13:02:20.005Z,3.43
2018-01-31T13:04:59.481Z,4.07
2018-01-31T13:07:38.775Z,3.10
2018-01-31T13:10:18.195Z,4.20
2018-01-31T13:12:57.604Z,3.30
2018-01-31T13:15:36.989Z,3.40
2018-01-31T13:18:16.528Z,2.93
2018-01-31T13:20:55.930Z,3.30
2018-01-31T13:23:23.453Z,3.70
2018-01-31T13:26:02.887Z,4.17
2018-01-31T13:31:59.427Z,2.70
2018-01-31T13:34:38.752Z,2.70
2018-01-31T13:37:23.879Z,2.37
2018-01-31T13:43:10.649Z,2.23
2018-01-31T13:45:50.302Z,2.97
2018-01-31T13:48:29.633Z,6.13
2018-01-31T13:54:15.780Z,2.30
2018-01-31T13:56:55.185Z,2.70
2018-01-31T13:59:34.476Z,3.03
2018-01-31T14:02:13.814Z,3.17
2018-01-31T14:04:53.140Z,3.10
2018-01-31T14:07:32.518Z,2.10
2018-01-31T14:10:11.923Z,1.40
2018-01-31T14:12:51.416Z,2.13
2018-01-31T14:15:30.935Z,3.90
2018-01-31T14:18:10.327Z,2.23
2018-01-31T14:20:49.713Z,1.80
2018-01-31T14:23:23.887Z,1.93
2018-01-31T14:26:03.278Z,1.37
2018-01-31T14:28:42.766Z,2.17
2018-01-31T14:31:22.233Z,1.83
2018-01-31T14:34:01.758Z,1.20
2018-01-31T14:36:28.730Z,3.20
2018-01-31T14:38:55.763Z,3.00
2018-01-31T14:41:22.738Z,1.73
2018-01-31T14:43:49.712Z,3.37
2018-01-31T14:46:16.691Z,1.30
2018-01-31T14:48:43.661Z,1.67
2018-01-31T14:51:10.633Z,1.43
2018-01-31T14:53:37.609Z,2.50
2018-01-31T14:56:04.584Z,1.33
2018-01-31T14:58:31.621Z,2.33
2018-01-31T15:00:58.600Z,1.10
2018-01-31T15:03:36.006Z,1.17
2018-01-31T15:06:02.991Z,1.10
2018-01-31T15:08:29.968Z,1.30
2018-01-31T15:10:56.941Z,1.20
2018-01-31T15:13:23.920Z,1.57
2018-01-31T15:15:50.909Z,2.10
2018-01-31T15:18:17.875Z,0.97
2018-01-31T15:20:44.866Z,1.87
2018-01-31T15:23:11.853Z,1.30
2018-01-31T15:25:38.835Z,1.53
2018-01-31T15:28:05.806Z,1.93
2018-01-31T15:30:32.786Z,1.10
2018-01-31T15:32:59.776Z,1.73
2018-01-31T15:35:26.751Z,1.13
2018-01-31T15:37:53.726Z,1.07
2018-01-31T15:40:20.714Z,1.47
2018-01-31T15:42:47.681Z,1.13
2018-01-31T15:45:14.660Z,1.43
2018-01-31T15:47:41.640Z,1.20
2018-01-31T15:50:08.622Z,1.30
2018-01-31T15:52:35.602Z,2.00
2018-01-31T15:55:02.592Z,1.93
2018-01-31T15:57:29.591Z,1.80
2018-01-31T15:59:56.583Z,1.80
2018-01-31T16:02:23.545Z,0.80
2018-01-31T16:04:50.522Z,2.30
2018-01-31T16:07:17.568Z,1.20
2018-01-31T16:09:44.514Z,1.47
2018-01-31T16:12:11.482Z,2.67
2018-01-31T16:14:38.449Z,2.47
2018-01-31T16:17:05.967Z,1.20
2018-01-31T16:19:45.216Z,1.23
2018-01-31T16:22:12.721Z,1.03
2018-01-31T16:24:40.227Z,1.00
2018-01-31T16:27:19.536Z,1.60
2018-01-31T16:33:05.092Z,3.00
2018-01-31T16:35:32.593Z,1.13
2018-01-31T16:38:00.099Z,1.63
2018-01-31T16:40:27.637Z,1.10
2018-01-31T16:42:55.153Z,1.40
2018-01-31T16:45:22.690Z,1.50
2018-01-31T16:47:50.188Z,1.37
2018-01-31T16:50:17.720Z,1.60
2018-01-31T16:52:45.248Z,1.20
2018-01-31T16:55:12.758Z,1.10
2018-01-31T16:57:40.296Z,1.30
2018-01-31T17:00:07.853Z,1.17
2018-01-31T17:02:35.369Z,1.40
2018-01-31T17:05:02.876Z,1.83
2018-01-31T17:07:30.397Z,1.27
2018-01-31T17:09:57.959Z,1.80
2018-01-31T17:12:25.489Z,1.33
2018-01-31T17:14:53.005Z,2.50
2018-01-31T17:17:20.513Z,1.87
2018-01-31T17:19:48.020Z,1.50
2018-01-31T17:22:15.533Z,1.83
2018-01-31T17:24:43.121Z,1.37
2018-01-31T17:27:10.645Z,1.57
2018-01-31T17:29:38.166Z,1.27
2018-01-31T17:32:05.669Z,1.30
2018-01-31T17:34:33.174Z,1.40
2018-01-31T17:37:00.678Z,1.87
2018-01-31T17:39:28.192Z,1.80
2018-01-31T17:41:55.712Z,2.30
2018-01-31T17:44:23.223Z,2.20
2018-01-31T17:46:50.742Z,2.80
2018-01-31T17:49:18.241Z,1.27
2018-01-31T17:51:45.747Z,1.40
2018-01-31T17:54:13.257Z,1.70
2018-01-31T17:56:40.778Z,1.80
2018-01-31T17:59:08.286Z,1.53
2018-01-31T18:01:35.785Z,1.73
2018-01-31T18:04:03.305Z,1.63
2018-01-31T18:06:30.830Z,1.73
2018-01-31T18:08:58.333Z,1.50
2018-01-31T18:11:25.832Z,2.23
2018-01-31T18:13:53.341Z,1.70
2018-01-31T18:16:20.883Z,1.33
2018-01-31T18:18:48.388Z,2.77
2018-01-31T18:21:15.890Z,2.70
2018-01-31T18:23:43.392Z,1.50
2018-01-31T18:26:10.894Z,1.37
2018-01-31T18:28:38.425Z,1.73
2018-01-31T18:31:05.934Z,2.90
2018-01-31T18:33:33.441Z,2.30
2018-01-31T18:36:00.964Z,3.37
2018-01-31T18:38:28.502Z,1.77
2018-01-31T18:40:56.016Z,3.80
2018-01-31T18:43:23.523Z,4.07
2018-01-31T18:45:51.044Z,1.73
2018-01-31T18:48:18.565Z,1.60
2018-01-31T18:50:46.078Z,1.50
2018-01-31T18:53:13.585Z,1.60
2018-01-31T18:55:41.111Z,1.43
2018-01-31T18:58:08.627Z,1.93
2018-01-31T19:00:36.141Z,1.80
2018-01-31T19:03:03.672Z,2.97
2018-01-31T19:05:31.186Z,2.77
2018-01-31T19:07:58.696Z,1.40
2018-01-31T19:10:26.221Z,2.47
2018-01-31T19:12:53.732Z,2.03
2018-01-31T19:15:21.232Z,1.40
2018-01-31T19:17:48.745Z,1.50
2018-01-31T19:20:16.260Z,1.70
2018-01-31T19:22:43.767Z,2.00
2018-01-31T19:25:11.269Z,1.67
2018-01-31T19:27:38.777Z,1.77
2018-01-31T19:30:06.284Z,1.70
2018-01-31T19:32:33.796Z,2.17
2018-01-31T19:35:01.309Z,2.40
2018-01-31T19:37:28.814Z,1.53
2018-01-31T19:39:56.325Z,2.00
2018-01-31T19:42:23.854Z,3.20
2018-01-31T19:44:51.358Z,2.00
2018-01-31T19:47:18.870Z,0.97
2018-01-31T19:49:46.368Z,0.90
2018-01-31T19:52:13.878Z,0.73
2018-01-31T19:54:41.385Z,2.37
2018-01-31T19:57:08.894Z,1.20
2018-01-31T19:59:36.404Z,1.80
2018-01-31T20:02:03.917Z,1.00
2018-01-31T20:04:31.441Z,1.10
2018-01-31T20:06:58.949Z,1.13
2018-01-31T20:09:26.466Z,0.90
2018-01-31T20:11:53.987Z,1.00
2018-01-31T20:14:21.498Z,1.00
2018-01-31T20:16:49.245Z,2.03
2018-01-31T20:19:16.749Z,3.13
2018-01-31T20:21:44.288Z,2.37
2018-01-31T20:24:11.796Z,1.60
2018-01-31T20:26:39.385Z,3.70
2018-01-31T20:29:06.893Z,2.23
2018-01-31T20:31:34.416Z,2.60
2018-01-31T20:34:01.926Z,2.67
2018-01-31T20:36:29.442Z,1.90
2018-01-31T20:38:56.948Z,2.50
2018-01-31T20:41:24.456Z,2.70
2018-01-31T20:43:52.093Z,2.80
2018-01-31T20:46:19.658Z,1.10
2018-01-31T20:48:47.208Z,1.60
2018-01-31T20:51:14.760Z,1.70
2018-01-31T20:53:42.262Z,1.90
2018-01-31T20:56:09.775Z,2.33
2018-01-31T20:58:37.287Z,1.37
2018-01-31T21:01:04.807Z,1.50
2018-01-31T21:03:32.313Z,1.20
2018-01-31T21:05:59.831Z,2.27
2018-01-31T21:08:27.340Z,1.07
2018-01-31T21:10:54.845Z,1.37
2018-01-31T21:13:22.390Z,2.03
2018-01-31T21:15:49.921Z,1.10
2018-01-31T21:18:17.443Z,1.37
2018-01-31T21:20:44.955Z,1.33
2018-01-31T21:23:12.466Z,1.43
2018-01-31T21:25:39.968Z,1.00
2018-01-31T21:28:07.470Z,1.17
2018-01-31T21:30:34.975Z,1.33
2018-01-31T21:33:02.478Z,1.03
2018-01-31T21:35:29.985Z,1.37
2018-01-31T21:37:57.507Z,1.83
2018-01-31T21:40:25.066Z,0.70
2018-01-31T21:42:52.581Z,1.07
2018-01-31T21:45:20.094Z,1.83
2018-01-31T21:47:47.607Z,0.80
2018-01-31T21:50:15.144Z,1.03
2018-01-31T21:52:42.654Z,1.80
2018-01-31T21:55:10.189Z,1.57
2018-01-31T21:57:49.515Z,2.03
2018-01-31T22:00:17.027Z,1.10
2018-01-31T22:02:44.549Z,1.10
2018-01-31T22:05:12.123Z,1.00
2018-01-31T22:07:39.665Z,1.40
2018-01-31T22:10:07.210Z,1.07
2018-01-31T22:12:34.717Z,0.90
2018-01-31T22:15:02.220Z,1.30
2018-01-31T22:17:29.756Z,2.10
2018-01-31T22:19:57.265Z,1.50
2018-01-31T22:22:24.772Z,3.93
2018-01-31T22:24:52.358Z,1.80
2018-01-31T22:27:19.885Z,2.23
2018-01-31T22:29:47.418Z,2.40
2018-01-31T22:32:14.942Z,1.90
2018-01-31T22:34:42.453Z,2.37
2018-01-31T22:37:09.960Z,2.17
2018-01-31T22:39:37.474Z,1.43
2018-01-31T22:42:04.985Z,1.83
2018-01-31T22:44:32.501Z,2.00
2018-01-31T22:47:00.035Z,1.67
2018-01-31T22:49:27.850Z,1.85
2018-01-31T22:51:55.365Z,2.60
2018-01-31T22:54:22.885Z,4.10
2018-01-31T22:56:50.396Z,3.43
2018-01-31T22:59:17.897Z,1.70
2018-01-31T23:01:45.410Z,3.67
2018-01-31T23:04:12.911Z,1.93
2018-01-31T23:06:40.431Z,2.27
2018-01-31T23:09:07.934Z,1.67
2018-01-31T23:11:40.954Z,2.63
2018-01-31T23:14:14.006Z,2.10
2018-01-31T23:16:41.508Z,2.73
2018-01-31T23:19:09.018Z,2.97
2018-01-31T23:21:36.540Z,4.30
2018-01-31T23:24:04.046Z,2.40
2018-01-31T23:26:31.558Z,2.27
2018-01-31T23:28:59.060Z,2.13
2018-01-31T23:31:26.564Z,2.07
2018-01-31T23:33:54.070Z,2.30
2018-01-31T23:36:21.586Z,3.40
2018-01-31T23:38:49.121Z,3.50
2018-01-31T23:41:16.646Z,2.17
2018-01-31T23:43:44.150Z,2.97
2018-01-31T23:46:11.661Z,2.47
2018-01-31T23:48:39.176Z,3.10
2018-01-31T23:51:06.720Z,2.80
2018-01-31T23:53:34.231Z,3.37
2018-01-31T23:56:01.725Z,2.87
2018-01-31T23:58:29.229Z,2.43
